createdAt,value
2022-08-01T00:01:08.363Z,20.50
2022-08-01T00:03:44.774Z,20.50
2022-08-01T00:06:13.273Z,20.40
2022-08-01T00:08:48.695Z,20.40
2022-08-01T00:11:17.113Z,20.40
2022-08-01T00:13:51.704Z,20.40
2022-08-01T00:16:20.299Z,20.30
2022-08-01T00:18:56.814Z,20.30
2022-08-01T00:21:25.410Z,20.30
2022-08-01T00:24:00.775Z,20.30
2022-08-01T00:26:29.277Z,20.30
2022-08-01T00:29:11.636Z,20.30
2022-08-01T00:31:59.275Z,20.30
2022-08-01T00:34:35.721Z,20.30
2022-08-01T00:37:04.299Z,20.30
2022-08-01T00:39:40.019Z,20.30
2022-08-01T00:42:09.729Z,20.30
2022-08-01T00:44:44.833Z,20.30
2022-08-01T00:47:13.648Z,20.20
2022-08-01T00:49:49.846Z,20.20
2022-08-01T00:52:18.333Z,20.20
2022-08-01T00:54:53.745Z,20.20
2022-08-01T00:58:03.012Z,20.30
2022-08-01T01:00:18.833Z,20.20
2022-08-01T01:02:55.583Z,20.20
2022-08-01T01:05:35.756Z,20.20
2022-08-01T01:08:10.225Z,20.20
2022-08-01T01:10:51.834Z,20.20
2022-08-01T01:13:25.861Z,20.10
2022-08-01T01:16:06.841Z,20.10
2022-08-01T01:18:41.175Z,20.00
2022-08-01T01:21:45.861Z,20.00
2022-08-01T01:24:30.539Z,20.00
2022-08-01T01:27:15.774Z,20.00
2022-08-01T01:30:00.539Z,20.00
2022-08-01T01:32:42.130Z,19.90
2022-08-01T01:35:14.073Z,20.00
2022-08-01T01:37:51.777Z,20.00
2022-08-01T01:40:22.505Z,20.00
2022-08-01T01:42:58.810Z,20.00
2022-08-01T01:45:29.971Z,20.00
2022-08-01T01:48:07.746Z,20.00
2022-08-01T01:50:38.696Z,20.00
2022-08-01T01:53:15.049Z,20.00
2022-08-01T01:55:49.575Z,20.00
2022-08-01T01:58:27.148Z,20.00
2022-08-01T02:00:59.635Z,20.00
2022-08-01T02:03:39.919Z,20.00
2022-08-01T02:06:08.942Z,20.00
2022-08-01T02:08:45.917Z,20.00
2022-08-01T02:11:20.585Z,20.00
2022-08-01T02:14:00.822Z,20.00
2022-08-01T02:16:32.605Z,20.00
2022-08-01T02:19:07.807Z,20.00
2022-08-01T02:21:42.572Z,20.00
2022-08-01T02:24:22.928Z,20.00
2022-08-01T02:27:10.328Z,20.00
2022-08-01T02:30:00.834Z,20.00
2022-08-01T02:32:38.658Z,20.00
2022-08-01T02:35:16.820Z,20.00
2022-08-01T02:37:48.002Z,20.00
2022-08-01T02:40:25.157Z,20.00
2022-08-01T02:42:57.166Z,20.00
2022-08-01T02:45:35.820Z,19.90
2022-08-01T02:48:15.961Z,19.90
2022-08-01T02:50:46.452Z,19.90
2022-08-01T02:53:23.855Z,19.90
2022-08-01T02:56:14.491Z,19.90
2022-08-01T02:58:51.178Z,19.90
2022-08-01T03:01:23.515Z,19.90
2022-08-01T03:04:04.175Z,19.90
2022-08-01T03:06:33.878Z,19.90
2022-08-01T03:09:10.948Z,19.90
2022-08-01T03:11:44.118Z,19.90
2022-08-01T03:14:20.884Z,19.80
2022-08-01T03:16:53.782Z,19.80
2022-08-01T03:19:34.223Z,19.80
2022-08-01T03:22:05.449Z,19.80
2022-08-01T03:24:41.951Z,19.80
2022-08-01T03:27:18.723Z,19.80
2022-08-01T03:30:01.970Z,19.80
2022-08-01T03:32:32.204Z,19.80
2022-08-01T03:35:08.898Z,19.80
2022-08-01T03:38:13.028Z,19.70
2022-08-01T03:40:45.019Z,19.70
2022-08-01T03:43:19.473Z,19.60
2022-08-01T03:45:58.014Z,19.60
2022-08-01T03:48:33.405Z,19.60
2022-08-01T03:51:10.974Z,19.60
2022-08-01T03:53:42.642Z,19.60
2022-08-01T03:56:20.044Z,19.60
2022-08-01T03:58:49.981Z,19.60
2022-08-01T04:01:25.965Z,19.60
2022-08-01T04:03:54.907Z,19.60
2022-08-01T04:06:31.006Z,19.60
2022-08-01T04:08:59.549Z,19.60
2022-08-01T04:11:36.919Z,19.60
2022-08-01T04:14:09.232Z,19.60
2022-08-01T04:16:44.896Z,19.60
2022-08-01T04:19:14.050Z,19.50
2022-08-01T04:21:51.027Z,19.50
2022-08-01T04:24:21.893Z,19.50
2022-08-01T04:26:59.934Z,19.50
2022-08-01T04:29:36.579Z,19.50
2022-08-01T04:32:13.269Z,19.40
2022-08-01T04:34:44.152Z,19.40
2022-08-01T04:37:24.247Z,19.40
2022-08-01T04:39:55.614Z,19.40
2022-08-01T04:42:33.574Z,19.40
2022-08-01T04:45:02.965Z,19.40
2022-08-01T04:47:39.050Z,19.40
2022-08-01T04:50:09.533Z,19.40
2022-08-01T04:52:49.923Z,19.30
2022-08-01T04:55:19.249Z,19.20
2022-08-01T04:57:56.087Z,19.10
2022-08-01T05:00:24.690Z,19.00
2022-08-01T05:02:59.912Z,19.00
2022-08-01T05:05:28.606Z,19.00
2022-08-01T05:08:05.295Z,18.80
2022-08-01T05:10:34.178Z,18.70
2022-08-01T05:13:08.990Z,18.70
2022-08-01T05:15:38.025Z,18.70
2022-08-01T05:18:13.101Z,18.70
2022-08-01T05:20:43.928Z,18.80
2022-08-01T05:23:30.957Z,18.80
2022-08-01T05:26:09.488Z,18.80
2022-08-01T05:28:51.087Z,18.80
2022-08-01T05:31:26.544Z,18.80
2022-08-01T05:34:02.139Z,18.90
2022-08-01T05:36:30.647Z,18.90
2022-08-01T05:39:08.125Z,19.00
2022-08-01T05:41:37.858Z,19.00
2022-08-01T05:44:13.151Z,19.00
2022-08-01T05:46:42.000Z,19.00
2022-08-01T05:49:17.083Z,19.10
2022-08-01T05:51:45.718Z,19.10
2022-08-01T05:54:22.328Z,19.10
2022-08-01T05:56:50.574Z,19.00
2022-08-01T05:59:26.116Z,19.00
2022-08-01T06:01:54.690Z,19.00
2022-08-01T06:04:30.358Z,19.10
2022-08-01T06:06:59.084Z,19.10
2022-08-01T06:09:35.073Z,19.20
2022-08-01T06:12:04.630Z,19.20
2022-08-01T06:14:40.366Z,19.20
2022-08-01T06:17:08.974Z,19.10
2022-08-01T06:19:44.120Z,19.10
2022-08-01T06:22:12.799Z,19.10
2022-08-01T06:24:49.059Z,19.00
2022-08-01T06:27:37.124Z,19.00
2022-08-01T06:30:19.051Z,19.20
2022-08-01T06:32:55.386Z,19.30
2022-08-01T06:35:23.748Z,19.30
2022-08-01T06:37:58.990Z,19.30
2022-08-01T06:40:29.126Z,19.40
2022-08-01T06:43:04.101Z,19.50
2022-08-01T06:45:32.669Z,19.50
2022-08-01T06:48:08.403Z,19.60
2022-08-01T06:50:38.196Z,19.70
2022-08-01T06:53:13.097Z,19.60
2022-08-01T06:55:42.814Z,19.60
2022-08-01T06:58:18.373Z,19.70
2022-08-01T07:00:47.106Z,19.80
2022-08-01T07:03:22.417Z,19.90
2022-08-01T07:05:50.930Z,19.90
2022-08-01T07:08:26.095Z,20.00
2022-08-01T07:10:57.035Z,20.10
2022-08-01T07:13:43.749Z,20.10
2022-08-01T07:16:12.929Z,20.20
2022-08-01T07:18:48.098Z,20.30
2022-08-01T07:21:39.000Z,20.30
2022-08-01T07:24:13.532Z,20.30
2022-08-01T07:26:52.164Z,20.40
2022-08-01T07:29:36.137Z,20.30
2022-08-01T07:32:04.880Z,20.40
2022-08-01T07:34:40.138Z,20.60
2022-08-01T07:37:08.583Z,20.70
2022-08-01T07:39:43.454Z,20.80
2022-08-01T07:42:13.922Z,20.80
2022-08-01T07:44:49.251Z,20.80
2022-08-01T07:47:17.824Z,20.90
2022-08-01T07:49:53.239Z,20.90
2022-08-01T07:52:21.985Z,20.90
2022-08-01T07:54:57.290Z,20.80
2022-08-01T07:57:27.755Z,20.70
2022-08-01T08:00:02.251Z,20.80
2022-08-01T08:02:30.793Z,20.90
2022-08-01T08:05:06.225Z,21.10
2022-08-01T08:07:35.760Z,21.20
2022-08-01T08:10:11.259Z,21.30
2022-08-01T08:12:41.550Z,21.30
2022-08-01T08:15:19.257Z,21.20
2022-08-01T08:17:50.273Z,21.30
2022-08-01T08:20:32.493Z,21.50
2022-08-01T08:23:01.073Z,21.50
2022-08-01T08:25:36.492Z,21.60
2022-08-01T08:28:28.227Z,21.50
2022-08-01T08:31:24.984Z,21.60
2022-08-01T08:33:59.499Z,21.60
2022-08-01T08:36:34.272Z,21.40
2022-08-01T08:39:03.026Z,21.30
2022-08-01T08:41:39.283Z,21.40
2022-08-01T08:44:10.644Z,21.80
2022-08-01T08:46:50.292Z,22.20
2022-08-01T08:49:21.488Z,22.40
2022-08-01T08:51:58.179Z,22.30
2022-08-01T08:54:29.131Z,21.90
2022-08-01T08:57:08.190Z,21.70
2022-08-01T08:59:39.271Z,21.80
2022-08-01T09:02:14.608Z,21.90
2022-08-01T09:04:43.971Z,21.90
2022-08-01T09:07:19.319Z,22.10
2022-08-01T09:09:55.232Z,22.40
2022-08-01T09:12:30.144Z,22.60
2022-08-01T09:14:59.991Z,22.60
2022-08-01T09:17:35.296Z,23.00
2022-08-01T09:20:03.708Z,23.30
2022-08-01T09:22:45.071Z,23.30
2022-08-01T09:25:16.422Z,23.30
2022-08-01T09:27:51.267Z,23.10
2022-08-01T09:30:28.978Z,23.10
2022-08-01T09:33:11.249Z,23.20
2022-08-01T09:35:56.172Z,23.10
2022-08-01T09:38:34.229Z,23.00
2022-08-01T09:41:03.443Z,23.10
2022-08-01T09:43:40.211Z,23.20
2022-08-01T09:46:13.639Z,23.40
2022-08-01T09:49:07.395Z,23.50
2022-08-01T09:51:59.157Z,23.70
2022-08-01T09:54:41.352Z,23.70
2022-08-01T09:57:11.997Z,23.80
2022-08-01T09:59:59.025Z,23.90
2022-08-01T10:02:34.380Z,23.90
2022-08-01T10:05:11.395Z,24.10
2022-08-01T10:08:00.780Z,23.80
2022-08-01T10:10:37.296Z,24.00
2022-08-01T10:13:07.064Z,24.00
2022-08-01T10:15:45.363Z,24.10
2022-08-01T10:18:26.255Z,24.30
2022-08-01T10:21:03.226Z,24.70
2022-08-01T10:23:41.176Z,25.00
2022-08-01T10:26:18.259Z,24.40
2022-08-01T10:29:45.340Z,24.20
2022-08-01T10:32:05.646Z,24.10
2022-08-01T10:34:37.142Z,24.80
2022-08-01T10:37:13.268Z,25.30
2022-08-01T10:39:42.686Z,26.10
2022-08-01T10:42:20.388Z,26.50
2022-08-01T10:44:49.662Z,26.70
2022-08-01T10:47:49.715Z,26.00
2022-08-01T10:50:26.068Z,26.10
2022-08-01T10:53:24.126Z,25.90
2022-08-01T10:56:04.061Z,25.70
2022-08-01T10:58:44.727Z,25.80
2022-08-01T11:01:25.562Z,26.10
2022-08-01T11:04:16.513Z,27.00
2022-08-01T11:06:59.800Z,27.30
2022-08-01T11:09:40.497Z,26.70
2022-08-01T11:12:21.240Z,26.50
2022-08-01T11:15:33.350Z,26.50
2022-08-01T11:18:04.530Z,26.10
2022-08-01T11:20:42.560Z,25.70
2022-08-01T11:23:23.523Z,25.40
2022-08-01T11:26:29.001Z,25.60
2022-08-01T11:29:30.493Z,25.90
2022-08-01T11:32:29.578Z,26.00
2022-08-01T11:35:05.356Z,25.90
2022-08-01T11:37:36.110Z,26.00
2022-08-01T11:40:28.448Z,26.60
2022-08-01T11:43:20.924Z,27.10
2022-08-01T11:45:56.374Z,27.60
2022-08-01T11:48:29.296Z,27.90
2022-08-01T11:51:06.475Z,28.00
2022-08-01T11:53:38.657Z,27.70
2022-08-01T11:56:17.589Z,27.10
2022-08-01T11:58:46.262Z,26.50
2022-08-01T12:01:22.492Z,25.90
2022-08-01T12:03:58.578Z,25.90
2022-08-01T12:06:37.690Z,26.00
2022-08-01T12:09:24.506Z,26.20
2022-08-01T12:11:59.499Z,26.10
2022-08-01T12:14:28.109Z,25.90
2022-08-01T12:17:03.670Z,26.00
2022-08-01T12:19:34.137Z,26.10
2022-08-01T12:22:18.383Z,26.30
2022-08-01T12:24:46.845Z,26.30
2022-08-01T12:27:33.704Z,26.10
2022-08-01T12:30:10.148Z,25.80
2022-08-01T12:32:46.712Z,25.60
2022-08-01T12:35:18.711Z,25.90
2022-08-01T12:37:55.449Z,26.00
2022-08-01T12:40:25.709Z,26.00
2022-08-01T12:43:03.515Z,26.50
2022-08-01T12:45:35.422Z,26.90
2022-08-01T12:48:11.409Z,26.90
2022-08-01T12:50:45.829Z,26.90
2022-08-01T12:53:22.915Z,26.80
2022-08-01T12:55:58.582Z,26.50
2022-08-01T12:58:40.723Z,26.50
2022-08-01T13:01:11.110Z,26.70
2022-08-01T13:03:46.494Z,26.90
2022-08-01T13:06:18.244Z,26.70
2022-08-01T13:08:54.431Z,26.40
2022-08-01T13:11:22.885Z,26.40
2022-08-01T13:14:00.788Z,25.90
2022-08-01T13:16:49.073Z,25.90
2022-08-01T13:19:24.538Z,25.80
2022-08-01T13:21:58.613Z,26.00
2022-08-01T13:24:35.573Z,26.20
2022-08-01T13:27:06.103Z,26.20
2022-08-01T13:29:49.541Z,26.20
2022-08-01T13:32:29.203Z,26.60
2022-08-01T13:35:10.619Z,26.50
2022-08-01T13:37:41.263Z,26.60
2022-08-01T13:40:18.521Z,26.20
2022-08-01T13:42:47.070Z,25.90
2022-08-01T13:45:22.664Z,25.70
2022-08-01T13:48:03.899Z,25.70
2022-08-01T13:50:57.377Z,25.90
2022-08-01T13:53:36.816Z,26.40
2022-08-01T13:56:12.758Z,26.30
2022-08-01T13:58:41.558Z,25.90
2022-08-01T14:01:16.538Z,26.20
2022-08-01T14:03:45.243Z,26.30
2022-08-01T14:06:20.866Z,26.20
2022-08-01T14:08:51.269Z,26.10
2022-08-01T14:11:26.662Z,26.30
2022-08-01T14:13:59.441Z,26.30
2022-08-01T14:16:34.480Z,26.50
2022-08-01T14:19:03.965Z,26.40
2022-08-01T14:21:39.518Z,26.70
2022-08-01T14:24:10.752Z,26.90
2022-08-01T14:26:45.495Z,26.60
2022-08-01T14:29:19.763Z,27.00
2022-08-01T14:32:01.503Z,27.40
2022-08-01T14:34:30.077Z,27.20
2022-08-01T14:37:05.702Z,27.00
2022-08-01T14:39:38.586Z,27.20
2022-08-01T14:42:13.534Z,27.40
2022-08-01T14:44:44.862Z,27.50
2022-08-01T14:47:24.668Z,27.20
2022-08-01T14:49:53.347Z,27.00
2022-08-01T14:52:28.556Z,27.10
2022-08-01T14:54:58.292Z,26.70
2022-08-01T14:57:33.555Z,26.90
2022-08-01T15:00:01.926Z,27.10
2022-08-01T15:02:36.530Z,27.30
2022-08-01T15:05:05.303Z,27.30
2022-08-01T15:07:42.066Z,26.60
2022-08-01T15:10:22.630Z,26.50
2022-08-01T15:12:57.588Z,26.50
2022-08-01T15:15:26.188Z,26.70
2022-08-01T15:18:01.574Z,26.60
2022-08-01T15:20:31.096Z,26.70
2022-08-01T15:23:05.589Z,26.70
2022-08-01T15:25:41.472Z,26.60
2022-08-01T15:28:17.887Z,26.50
2022-08-01T15:30:53.502Z,26.30
2022-08-01T15:33:35.717Z,26.30
2022-08-01T15:36:04.280Z,26.20
2022-08-01T15:38:39.561Z,26.10
2022-08-01T15:41:09.702Z,26.20
2022-08-01T15:43:44.940Z,26.30
2022-08-01T15:46:13.625Z,26.40
2022-08-01T15:48:48.621Z,26.20
2022-08-01T15:51:17.379Z,26.10
2022-08-01T15:53:53.645Z,26.10
2022-08-01T15:56:23.421Z,26.10
2022-08-01T15:58:58.891Z,26.10
2022-08-01T16:01:28.104Z,26.00
2022-08-01T16:04:03.621Z,26.00
2022-08-01T16:06:32.329Z,25.80
2022-08-01T16:09:07.580Z,25.80
2022-08-01T16:11:42.549Z,25.70
2022-08-01T16:14:19.702Z,25.90
2022-08-01T16:16:48.471Z,25.80
2022-08-01T16:19:24.071Z,25.70
2022-08-01T16:21:53.235Z,25.40
2022-08-01T16:24:27.947Z,25.30
2022-08-01T16:26:58.454Z,25.00
2022-08-01T16:29:37.982Z,24.90
2022-08-01T16:32:25.924Z,25.00
2022-08-01T16:35:09.637Z,25.00
2022-08-01T16:37:38.580Z,25.00
2022-08-01T16:40:14.539Z,25.00
2022-08-01T16:42:44.394Z,25.00
2022-08-01T16:45:21.646Z,24.90
2022-08-01T16:47:50.195Z,24.90
2022-08-01T16:50:28.708Z,24.80
2022-08-01T16:52:57.625Z,24.70
2022-08-01T16:55:49.575Z,24.80
2022-08-01T16:58:27.541Z,24.90
2022-08-01T17:02:03.328Z,24.90
2022-08-01T17:03:53.032Z,24.90
2022-08-01T17:06:28.971Z,24.90
2022-08-01T17:08:57.591Z,24.80
2022-08-01T17:11:32.768Z,24.70
2022-08-01T17:14:02.682Z,24.70
2022-08-01T17:16:37.776Z,24.70
2022-08-01T17:19:06.320Z,24.70
2022-08-01T17:21:41.768Z,24.70
2022-08-01T17:24:11.874Z,24.70
2022-08-01T17:26:52.032Z,24.60
2022-08-01T17:29:43.825Z,24.60
2022-08-01T17:32:20.691Z,24.50
2022-08-01T17:34:50.199Z,24.40
2022-08-01T17:37:25.988Z,24.50
2022-08-01T17:39:54.471Z,24.60
2022-08-01T17:42:30.705Z,24.60
2022-08-01T17:45:00.570Z,24.60
2022-08-01T17:47:50.390Z,24.50
2022-08-01T17:50:19.466Z,24.40
2022-08-01T17:52:54.724Z,24.30
2022-08-01T17:55:53.922Z,24.30
2022-08-01T17:58:33.087Z,24.20
2022-08-01T18:01:16.734Z,24.30
2022-08-01T18:03:45.582Z,24.20
2022-08-01T18:06:24.100Z,24.10
2022-08-01T18:09:01.868Z,24.10
2022-08-01T18:11:37.339Z,24.10
2022-08-01T18:14:12.722Z,24.10
2022-08-01T18:16:42.856Z,24.10
2022-08-01T18:19:17.746Z,24.10
2022-08-01T18:21:46.149Z,24.00
2022-08-01T18:24:22.733Z,24.00
2022-08-01T18:26:51.810Z,23.90
2022-08-01T18:29:48.170Z,23.80
2022-08-01T18:32:29.728Z,23.70
2022-08-01T18:34:58.426Z,23.60
2022-08-01T18:37:35.228Z,23.60
2022-08-01T18:40:13.014Z,23.60
2022-08-01T18:42:51.876Z,23.60
2022-08-01T18:45:20.960Z,23.50
2022-08-01T18:47:58.079Z,23.40
2022-08-01T18:50:27.350Z,23.30
2022-08-01T18:53:02.864Z,23.20
2022-08-01T18:55:31.549Z,23.20
2022-08-01T18:58:07.095Z,23.20
2022-08-01T19:00:35.531Z,23.10
2022-08-01T19:03:12.077Z,23.00
2022-08-01T19:05:40.711Z,22.90
2022-08-01T19:08:15.798Z,22.90
2022-08-01T19:10:44.646Z,22.80
2022-08-01T19:13:20.091Z,22.70
2022-08-01T19:15:48.518Z,22.70
2022-08-01T19:18:24.804Z,22.60
2022-08-01T19:20:53.367Z,22.50
2022-08-01T19:23:45.960Z,22.40
2022-08-01T19:26:15.996Z,22.40
2022-08-01T19:28:55.132Z,22.30
2022-08-01T19:31:33.671Z,22.20
2022-08-01T19:34:13.769Z,22.20
2022-08-01T19:36:42.513Z,22.10
2022-08-01T19:39:17.897Z,22.00
2022-08-01T19:41:47.617Z,22.00
2022-08-01T19:44:23.921Z,21.90
2022-08-01T19:46:54.167Z,21.90
2022-08-01T19:49:31.899Z,21.80
2022-08-01T19:52:03.149Z,21.70
2022-08-01T19:54:42.922Z,21.60
2022-08-01T19:57:14.946Z,21.60
2022-08-01T19:59:53.170Z,21.50
2022-08-01T20:02:21.768Z,21.50
2022-08-01T20:04:57.945Z,21.50
2022-08-01T20:07:26.395Z,21.40
2022-08-01T20:10:02.954Z,21.40
2022-08-01T20:12:31.944Z,21.40
2022-08-01T20:15:06.822Z,21.30
2022-08-01T20:17:35.555Z,21.30
2022-08-01T20:20:13.978Z,21.30
2022-08-01T20:22:43.082Z,21.20
2022-08-01T20:25:18.851Z,21.20
2022-08-01T20:27:48.921Z,21.10
2022-08-01T20:30:33.260Z,21.10
2022-08-01T20:33:08.693Z,21.00
2022-08-01T20:35:51.945Z,21.00
2022-08-01T20:38:24.193Z,20.90
2022-08-01T20:41:00.213Z,20.90
2022-08-01T20:43:28.898Z,20.80
2022-08-01T20:46:04.806Z,20.70
2022-08-01T20:48:33.961Z,20.70
2022-08-01T20:51:23.885Z,20.60
2022-08-01T20:53:53.961Z,20.50
2022-08-01T20:56:43.991Z,20.50
2022-08-01T20:59:56.311Z,20.50
2022-08-01T21:02:16.887Z,20.40
2022-08-01T21:04:57.437Z,20.30
2022-08-01T21:07:35.896Z,20.30
2022-08-01T21:10:08.053Z,20.20
2022-08-01T21:12:51.921Z,20.20
2022-08-01T21:15:30.883Z,20.10
2022-08-01T21:18:09.902Z,20.10
2022-08-01T21:20:42.119Z,20.10
2022-08-01T21:23:38.878Z,20.00
2022-08-01T21:26:12.440Z,19.90
2022-08-01T21:28:54.464Z,19.90
2022-08-01T21:31:40.392Z,19.80
2022-08-01T21:34:16.289Z,19.80
2022-08-01T21:36:47.221Z,19.80
2022-08-01T21:39:23.909Z,19.70
2022-08-01T21:41:56.605Z,19.60
2022-08-01T21:44:42.061Z,19.60
2022-08-01T21:47:11.946Z,19.50
2022-08-01T21:49:47.931Z,19.50
2022-08-01T21:52:21.518Z,19.50
2022-08-01T21:55:10.797Z,19.40
2022-08-01T21:58:08.183Z,19.40
2022-08-01T22:00:47.949Z,19.40
2022-08-01T22:03:25.743Z,19.50
2022-08-01T22:06:02.916Z,19.40
2022-08-01T22:08:35.967Z,19.40
2022-08-01T22:11:15.931Z,19.40
2022-08-01T22:13:44.391Z,19.30
2022-08-01T22:16:22.039Z,19.20
2022-08-01T22:18:50.995Z,19.20
2022-08-01T22:21:25.936Z,19.10
2022-08-01T22:23:55.309Z,19.10
2022-08-01T22:26:33.368Z,19.10
2022-08-01T22:29:02.850Z,19.10
2022-08-01T22:31:45.087Z,19.10
2022-08-01T22:34:16.162Z,19.10
2022-08-01T22:36:51.914Z,19.10
2022-08-01T22:39:22.125Z,19.00
2022-08-01T22:42:04.133Z,19.00
2022-08-01T22:44:42.965Z,19.10
2022-08-01T22:47:25.157Z,19.00
2022-08-01T22:50:02.088Z,19.00
2022-08-01T22:52:39.211Z,18.90
2022-08-01T22:55:09.532Z,18.90
2022-08-01T22:57:52.018Z,18.90
2022-08-01T23:00:21.038Z,18.90
2022-08-01T23:03:02.135Z,18.90
2022-08-01T23:05:32.024Z,18.80
2022-08-01T23:08:14.892Z,18.80
2022-08-01T23:10:44.704Z,18.80
2022-08-01T23:13:22.991Z,18.80
2022-08-01T23:15:52.544Z,18.70
2022-08-01T23:18:29.103Z,18.70
2022-08-01T23:20:59.735Z,18.70
2022-08-01T23:23:37.391Z,18.70
2022-08-01T23:26:34.362Z,18.70
2022-08-01T23:29:11.015Z,18.70
2022-08-01T23:32:00.216Z,18.60
2022-08-01T23:34:41.053Z,18.60
2022-08-01T23:37:09.631Z,18.50
2022-08-01T23:39:45.251Z,18.60
2022-08-01T23:42:14.989Z,18.50
2022-08-01T23:44:51.062Z,18.50
2022-08-01T23:47:19.788Z,18.60
2022-08-01T23:49:55.086Z,18.50
2022-08-01T23:52:23.537Z,18.50
2022-08-01T23:55:11.566Z,18.50
2022-08-01T23:57:44.146Z,18.40
